Branford, Connecticut
Current Conditions -  °F | °C
As of 2:53 PM on Monday 26 Jan 2015 (Local Time) from KHVN Reporting Station
Light Snow Light Snow  
Wind Chill:   Ceiling: 2000
Heat Index: 21°   Visibility: 1mi
Dew Point: 16°   Wind: 17mph
Humidity: 81%   Direction: 20°NNE
Pressure: 29.9"   Gusts: NA
Location:  41.28°N, 72.82°W
Report Text: KHVN 261953Z 02015KT 1SM R02/4500V6000FT -SN VV020 M06/M09 A2990 RMK AO2 SLP125 P0000 T10611089
Loading
Personal Weather Stations






























Interactive Weather Map New forecast layout! Learn more

10-Day Weather Forecast

Advertisements
Track Severe Weather on mobile